Terminal Aerodrome Forecast
Issued by NWS

Home | Current Version | Previous Version | Text Only | Print | Product List | Glossary On
Versions: 1 2 3 4 5 6 7 8 9 10 11 12 13 14 15 16 17 18 19 20 21 22 23 24 25 26 27 28 29
000
FTUS45 KGGW 222300
TAFGDV
TAF
KGDV 222320Z 2300/2324 VRB05KT P6SM VCSH SCT040 BKN100
     FM230100 09008KT P6SM BKN080
     FM231500 11012KT P6SM SCT100
     FM232000 13017G25KT P6SM SCT100
      AMD LTD TO CLD VIS AND WIND=

USA.gov is the U.S. government's official web portal to all federal, state and local government web resources and services.